createdAt,value
2023-06-23T00:02:18.518Z,0.15
2023-06-23T00:04:45.233Z,0.10
2023-06-23T00:07:11.896Z,0.10
2023-06-23T00:09:38.763Z,0.20
2023-06-23T00:12:09.240Z,0.20
2023-06-23T00:17:03.925Z,0.35
2023-06-23T00:19:32.942Z,0.25
2023-06-23T00:21:59.959Z,0.40
2023-06-23T00:24:28.249Z,0.50
2023-06-23T00:26:55.027Z,0.30
2023-06-23T00:29:22.042Z,0.32
2023-06-23T00:31:50.688Z,0.28
2023-06-23T00:34:17.633Z,0.30
2023-06-23T00:36:44.323Z,0.20
2023-06-23T00:39:11.058Z,0.20
2023-06-23T00:41:37.729Z,0.30
2023-06-23T00:44:08.239Z,0.20
2023-06-23T00:49:02.973Z,0.28
2023-06-23T00:51:31.539Z,0.30
2023-06-23T00:53:59.443Z,0.20
2023-06-23T00:56:26.622Z,0.20
2023-06-23T00:58:54.197Z,0.30
2023-06-23T01:01:21.517Z,0.30
2023-06-23T01:03:48.263Z,0.32
2023-06-23T01:06:38.560Z,0.20
2023-06-23T01:12:13.284Z,0.30
2023-06-23T01:14:57.850Z,0.30
2023-06-23T01:17:34.481Z,0.20
2023-06-23T01:20:23.247Z,0.20
2023-06-23T01:23:17.317Z,0.20
2023-06-23T01:25:56.312Z,0.30
2023-06-23T01:28:31.980Z,0.38
2023-06-23T01:31:03.597Z,0.38
2023-06-23T01:33:43.060Z,0.30
2023-06-23T01:36:19.421Z,0.63
2023-06-23T01:38:51.485Z,0.55
2023-06-23T01:41:25.090Z,0.68
2023-06-23T01:43:56.893Z,0.65
2023-06-23T01:46:35.872Z,0.70
2023-06-23T01:49:11.501Z,0.30
2023-06-23T01:51:47.820Z,0.38
2023-06-23T01:54:17.455Z,0.20
2023-06-23T01:56:45.065Z,0.20
2023-06-23T01:59:14.061Z,0.30
2023-06-23T02:01:44.027Z,0.40
2023-06-23T02:04:12.679Z,0.40
2023-06-23T02:06:45.463Z,0.63
2023-06-23T02:09:18.294Z,0.82
2023-06-23T02:11:46.819Z,1.23
2023-06-23T02:14:15.559Z,0.60
2023-06-23T02:16:43.800Z,0.65
2023-06-23T02:19:12.726Z,0.40
2023-06-23T02:21:40.410Z,0.80
2023-06-23T02:26:40.040Z,1.70
2023-06-23T02:29:10.389Z,0.70
2023-06-23T02:31:37.639Z,0.50
2023-06-23T02:34:04.673Z,0.68
2023-06-23T02:36:36.809Z,1.05
2023-06-23T02:39:07.180Z,1.13
2023-06-23T02:41:36.900Z,1.33
2023-06-23T02:44:12.718Z,1.67
2023-06-23T02:46:43.786Z,1.50
2023-06-23T02:49:16.062Z,1.90
2023-06-23T02:51:46.368Z,2.38
2023-06-23T02:54:17.818Z,2.80
2023-06-23T02:56:47.391Z,2.53
2023-06-23T02:59:19.257Z,2.50
2023-06-23T03:01:49.789Z,2.67
2023-06-23T03:06:45.289Z,2.00
2023-06-23T03:09:12.490Z,2.10
2023-06-23T03:11:39.614Z,1.80
2023-06-23T03:14:08.061Z,1.83
2023-06-23T03:16:50.477Z,1.88
2023-06-23T03:19:38.618Z,2.00
2023-06-23T03:22:15.293Z,1.83
2023-06-23T03:24:45.820Z,1.65
2023-06-23T03:27:14.626Z,2.08
2023-06-23T03:29:47.369Z,2.00
2023-06-23T03:32:23.485Z,2.50
2023-06-23T03:34:57.695Z,2.30
2023-06-23T03:37:28.172Z,2.47
2023-06-23T03:40:00.244Z,2.13
2023-06-23T03:42:28.779Z,2.30
2023-06-23T03:45:00.535Z,2.40
2023-06-23T03:47:30.702Z,2.40
2023-06-23T03:50:02.230Z,2.22
2023-06-23T03:52:29.877Z,1.70
2023-06-23T03:54:58.363Z,2.17
2023-06-23T03:57:30.400Z,1.88
2023-06-23T03:59:58.699Z,1.92
2023-06-23T04:02:27.312Z,2.13
2023-06-23T04:04:57.051Z,1.80
2023-06-23T04:07:27.729Z,1.90
2023-06-23T04:09:56.602Z,2.40
2023-06-23T04:12:24.497Z,2.13
2023-06-23T04:14:54.182Z,2.17
2023-06-23T04:17:27.052Z,2.70
2023-06-23T04:19:59.838Z,2.65
2023-06-23T04:22:32.051Z,2.45
2023-06-23T04:25:00.814Z,2.55
2023-06-23T04:27:29.749Z,2.80
2023-06-23T04:29:58.985Z,2.75
2023-06-23T04:32:26.068Z,2.80
2023-06-23T04:34:52.835Z,2.55
2023-06-23T04:37:27.814Z,2.70
2023-06-23T04:40:00.669Z,3.47
2023-06-23T04:42:43.032Z,2.42
2023-06-23T04:45:15.030Z,2.42
2023-06-23T04:47:44.734Z,2.65
2023-06-23T04:50:15.299Z,2.40
2023-06-23T04:52:47.732Z,2.50
2023-06-23T04:55:16.504Z,2.25
2023-06-23T04:57:46.407Z,2.15
2023-06-23T05:00:17.991Z,2.40
2023-06-23T05:02:49.584Z,2.33
2023-06-23T05:05:24.692Z,2.13
2023-06-23T05:07:53.423Z,2.25
2023-06-23T05:10:21.376Z,2.20
2023-06-23T05:12:50.405Z,2.15
2023-06-23T05:15:20.137Z,2.40
2023-06-23T05:17:54.551Z,2.10
2023-06-23T05:20:23.915Z,1.83
2023-06-23T05:22:52.719Z,2.47
2023-06-23T05:25:21.182Z,2.17
2023-06-23T05:27:53.381Z,2.00
2023-06-23T05:30:21.708Z,2.17
2023-06-23T05:32:50.425Z,2.22
2023-06-23T05:35:18.990Z,2.15
2023-06-23T05:37:47.458Z,2.20
2023-06-23T05:40:15.664Z,2.00
2023-06-23T05:42:43.593Z,2.20
2023-06-23T05:45:12.439Z,2.17
2023-06-23T05:47:50.258Z,2.13
2023-06-23T05:50:27.613Z,1.48
2023-06-23T05:53:16.470Z,1.95
2023-06-23T05:56:03.375Z,1.80
2023-06-23T05:58:35.367Z,2.45
2023-06-23T06:01:08.431Z,2.00
2023-06-23T06:03:39.195Z,2.00
2023-06-23T06:06:07.970Z,2.22
2023-06-23T06:08:37.507Z,2.30
2023-06-23T06:11:06.090Z,2.03
2023-06-23T06:13:36.767Z,1.80
2023-06-23T06:16:05.824Z,1.98
2023-06-23T06:18:35.227Z,1.70
2023-06-23T06:21:03.216Z,1.55
2023-06-23T06:23:31.209Z,1.20
2023-06-23T06:25:59.377Z,1.70
2023-06-23T06:28:28.392Z,1.80
2023-06-23T06:30:58.394Z,1.65
2023-06-23T06:33:26.162Z,1.67
2023-06-23T06:35:53.843Z,1.50
2023-06-23T06:38:23.001Z,2.03
2023-06-23T06:40:54.497Z,2.50
2023-06-23T06:43:21.294Z,2.13
2023-06-23T06:45:51.408Z,1.55
2023-06-23T06:48:20.653Z,1.65
2023-06-23T06:50:48.130Z,1.42
2023-06-23T06:53:15.700Z,2.10
2023-06-23T06:55:43.150Z,1.20
2023-06-23T06:58:10.697Z,1.83
2023-06-23T07:00:37.770Z,1.88
2023-06-23T07:03:05.637Z,2.28
2023-06-23T07:05:32.336Z,1.50
2023-06-23T07:07:59.274Z,1.70
2023-06-23T07:10:25.943Z,1.88
2023-06-23T07:12:52.595Z,1.20
2023-06-23T07:15:19.274Z,1.13
2023-06-23T07:17:46.036Z,1.13
2023-06-23T07:20:13.270Z,1.27
2023-06-23T07:22:41.345Z,1.40
2023-06-23T07:25:08.349Z,1.50
2023-06-23T07:27:36.581Z,1.23
2023-06-23T07:30:04.977Z,1.80
2023-06-23T07:32:31.990Z,1.30
2023-06-23T07:34:58.709Z,1.48
2023-06-23T07:37:25.343Z,1.30
2023-06-23T07:39:51.936Z,0.98
2023-06-23T07:42:18.585Z,0.40
2023-06-23T07:44:45.864Z,0.40
2023-06-23T07:47:15.351Z,0.20
2023-06-23T07:49:42.314Z,0.30
2023-06-23T07:52:11.430Z,0.20
2023-06-23T07:54:40.527Z,0.32
2023-06-23T07:57:09.563Z,0.20
2023-06-23T07:59:36.392Z,0.55
2023-06-23T08:02:04.837Z,0.30
2023-06-23T08:04:31.578Z,0.20
2023-06-23T08:06:58.435Z,0.47
2023-06-23T08:09:25.125Z,0.30
2023-06-23T08:11:51.681Z,0.30
2023-06-23T08:14:18.354Z,0.40
2023-06-23T08:16:45.050Z,0.52
2023-06-23T08:19:11.698Z,0.20
2023-06-23T08:21:38.593Z,0.30
2023-06-23T08:24:05.740Z,0.20
2023-06-23T08:26:33.323Z,0.13
2023-06-23T08:29:00.022Z,0.20
2023-06-23T08:31:26.690Z,0.30
2023-06-23T08:33:53.321Z,0.25
2023-06-23T08:36:20.167Z,0.35
2023-06-23T08:38:46.814Z,0.45
2023-06-23T08:41:13.569Z,0.50
2023-06-23T08:43:46.143Z,0.40
2023-06-23T08:46:15.966Z,0.57
2023-06-23T08:48:52.254Z,0.52
2023-06-23T08:51:19.128Z,0.70
2023-06-23T08:53:46.818Z,0.77
2023-06-23T08:56:15.629Z,0.60
2023-06-23T08:58:42.793Z,0.88
2023-06-23T09:01:09.581Z,0.65
2023-06-23T09:03:36.517Z,0.60
2023-06-23T09:06:03.472Z,0.70
2023-06-23T09:08:31.216Z,0.70
2023-06-23T09:10:57.968Z,1.00
2023-06-23T09:13:30.698Z,0.80
2023-06-23T09:16:03.934Z,0.80
2023-06-23T09:18:35.194Z,0.50
2023-06-23T09:21:03.916Z,0.68
2023-06-23T09:23:32.465Z,1.00
2023-06-23T09:26:00.749Z,0.60
2023-06-23T09:28:37.411Z,0.70
2023-06-23T09:31:13.089Z,0.70
2023-06-23T09:33:54.641Z,0.68
2023-06-23T09:36:21.450Z,0.60
2023-06-23T09:38:50.469Z,0.45
2023-06-23T09:41:20.234Z,0.63
2023-06-23T09:43:51.986Z,0.30
2023-06-23T09:46:21.468Z,0.30
2023-06-23T09:48:50.419Z,0.30
2023-06-23T09:51:20.145Z,0.22
2023-06-23T09:53:48.882Z,0.30
2023-06-23T09:56:18.659Z,0.30
2023-06-23T09:58:48.781Z,0.30
2023-06-23T10:01:20.327Z,0.40
2023-06-23T10:03:55.546Z,0.28
2023-06-23T10:06:28.191Z,0.40
2023-06-23T10:08:56.941Z,0.40
2023-06-23T10:11:35.974Z,0.38
2023-06-23T10:14:08.119Z,0.40
2023-06-23T10:16:36.574Z,0.52
2023-06-23T10:19:04.667Z,0.40
2023-06-23T10:21:32.107Z,0.50
2023-06-23T10:24:02.013Z,0.40
2023-06-23T10:26:32.660Z,0.47
2023-06-23T10:29:02.514Z,0.47
2023-06-23T10:31:31.577Z,0.27
2023-06-23T10:34:04.563Z,0.47
2023-06-23T10:36:39.629Z,0.30
2023-06-23T10:39:09.425Z,0.50
2023-06-23T10:41:36.440Z,0.43
2023-06-23T10:44:04.673Z,0.40
2023-06-23T10:46:31.618Z,0.30
2023-06-23T10:48:59.073Z,0.40
2023-06-23T10:51:26.507Z,0.47
2023-06-23T10:54:06.270Z,0.30
2023-06-23T10:56:37.007Z,0.30
2023-06-23T10:59:18.954Z,0.32
2023-06-23T11:02:01.084Z,0.40
2023-06-23T11:04:32.737Z,0.40
2023-06-23T11:07:13.941Z,0.30
2023-06-23T11:09:45.950Z,0.30
2023-06-23T11:12:31.134Z,0.30
2023-06-23T11:15:13.907Z,0.35
2023-06-23T11:17:42.180Z,0.40
2023-06-23T11:20:33.200Z,0.60
2023-06-23T11:23:11.252Z,0.30
2023-06-23T11:25:52.918Z,0.30
2023-06-23T11:28:39.888Z,0.30
2023-06-23T11:31:15.490Z,0.20
2023-06-23T11:33:44.554Z,0.40
2023-06-23T11:36:15.245Z,0.30
2023-06-23T11:38:43.601Z,0.50
2023-06-23T11:41:13.918Z,0.43
2023-06-23T11:43:42.417Z,0.20
2023-06-23T11:46:11.833Z,0.30
2023-06-23T11:48:40.911Z,0.20
2023-06-23T11:51:09.600Z,0.20
2023-06-23T11:53:37.760Z,0.20
2023-06-23T11:56:04.657Z,0.30
2023-06-23T11:58:35.850Z,0.20
2023-06-23T12:01:03.299Z,0.30
2023-06-23T12:03:37.320Z,0.25
2023-06-23T12:06:04.066Z,0.32
2023-06-23T12:08:30.838Z,0.20
2023-06-23T12:10:57.600Z,0.30
2023-06-23T12:13:24.278Z,0.30
2023-06-23T12:15:54.320Z,0.30
2023-06-23T12:18:24.755Z,0.50
2023-06-23T12:20:51.405Z,0.20
2023-06-23T12:23:18.657Z,0.20
2023-06-23T12:25:49.165Z,0.32
2023-06-23T12:30:45.272Z,0.20
2023-06-23T12:33:21.847Z,0.20
2023-06-23T12:35:56.550Z,0.30
2023-06-23T12:38:24.851Z,0.30
2023-06-23T12:40:52.175Z,0.20
2023-06-23T12:43:20.161Z,0.25
2023-06-23T12:46:04.983Z,0.30
2023-06-23T12:48:31.869Z,0.50
2023-06-23T12:50:59.629Z,0.30
2023-06-23T12:53:26.282Z,0.30
2023-06-23T12:55:52.985Z,0.30
2023-06-23T12:58:19.719Z,0.50
2023-06-23T13:00:46.474Z,0.30
2023-06-23T13:03:16.370Z,0.20
2023-06-23T13:05:44.631Z,0.20
2023-06-23T13:08:11.824Z,0.40
2023-06-23T13:10:38.505Z,0.28
2023-06-23T13:13:05.227Z,0.20
2023-06-23T13:15:33.733Z,0.30
2023-06-23T13:18:01.298Z,0.30
2023-06-23T13:26:49.276Z,0.47
2023-06-23T13:29:18.211Z,0.20
2023-06-23T13:31:45.308Z,0.22
2023-06-23T13:34:12.132Z,0.20
2023-06-23T13:36:39.507Z,0.20
2023-06-23T13:39:06.351Z,0.30
2023-06-23T13:41:33.047Z,0.30
2023-06-23T13:43:59.820Z,0.30
2023-06-23T13:46:26.614Z,0.40
2023-06-23T13:48:53.289Z,0.25
2023-06-23T13:53:46.868Z,0.20
2023-06-23T13:56:13.946Z,0.40
2023-06-23T13:58:41.010Z,0.30
2023-06-23T14:01:07.843Z,0.20
2023-06-23T14:03:34.589Z,0.20
2023-06-23T14:06:04.789Z,0.30
2023-06-23T14:08:36.631Z,0.20
2023-06-23T14:11:03.644Z,0.20
2023-06-23T14:13:30.477Z,0.30
2023-06-23T14:15:57.237Z,0.22
2023-06-23T14:18:23.930Z,0.10
2023-06-23T14:20:50.580Z,0.43
2023-06-23T14:23:17.301Z,0.10
2023-06-23T14:25:44.221Z,0.10
2023-06-23T14:28:11.017Z,0.10
2023-06-23T14:30:37.745Z,0.17
2023-06-23T14:33:04.592Z,0.10
2023-06-23T14:35:32.659Z,0.10
2023-06-23T14:38:00.077Z,0.20
2023-06-23T14:40:26.737Z,0.10
2023-06-23T14:42:53.835Z,0.10
2023-06-23T14:45:20.527Z,0.25
2023-06-23T14:47:47.400Z,0.10
2023-06-23T14:50:14.059Z,0.13
2023-06-23T14:52:41.138Z,0.10
2023-06-23T14:55:08.217Z,0.10
2023-06-23T14:57:36.027Z,0.20
2023-06-23T15:00:03.022Z,0.10
2023-06-23T15:02:30.867Z,0.30
2023-06-23T15:04:57.683Z,0.20
2023-06-23T15:07:24.420Z,0.10
2023-06-23T15:09:51.523Z,0.17
2023-06-23T15:12:18.198Z,0.10
2023-06-23T15:14:45.327Z,0.10
2023-06-23T15:17:12.045Z,0.20
2023-06-23T15:19:41.731Z,0.10
2023-06-23T15:22:10.128Z,0.10
2023-06-23T15:24:37.843Z,0.10
2023-06-23T15:27:06.018Z,0.20
2023-06-23T15:29:32.697Z,0.20
2023-06-23T15:32:00.127Z,0.10
2023-06-23T15:34:28.540Z,0.22
2023-06-23T15:36:56.436Z,0.22
2023-06-23T15:39:30.142Z,0.35
2023-06-23T15:41:57.154Z,0.20
2023-06-23T15:44:25.439Z,0.20
2023-06-23T15:46:52.796Z,0.20
2023-06-23T15:49:20.639Z,0.20
2023-06-23T15:51:47.447Z,0.20
2023-06-23T15:54:14.173Z,0.77
2023-06-23T15:56:40.996Z,0.30
2023-06-23T15:59:08.091Z,0.30
2023-06-23T16:01:34.899Z,0.20
2023-06-23T16:04:01.800Z,0.25
2023-06-23T16:06:29.438Z,0.20
2023-06-23T16:08:56.312Z,0.20
2023-06-23T16:11:23.027Z,0.25
2023-06-23T16:13:49.648Z,0.20
2023-06-23T16:16:16.565Z,0.20
2023-06-23T16:18:43.361Z,0.38
2023-06-23T16:21:10.118Z,0.30
2023-06-23T16:23:36.970Z,0.35
2023-06-23T16:26:03.743Z,0.10
2023-06-23T16:28:30.664Z,0.13
2023-06-23T16:30:57.490Z,0.20
2023-06-23T16:33:24.294Z,0.10
2023-06-23T16:35:51.085Z,0.20
2023-06-23T16:38:19.530Z,0.25
2023-06-23T16:40:46.259Z,0.10
2023-06-23T16:43:12.955Z,0.20
2023-06-23T16:45:39.633Z,0.15
2023-06-23T16:48:06.539Z,0.30
2023-06-23T16:50:34.756Z,0.43
2023-06-23T16:53:02.575Z,0.28
2023-06-23T16:55:29.371Z,0.20
2023-06-23T16:57:56.090Z,0.20
2023-06-23T17:00:23.092Z,0.10
2023-06-23T17:02:50.122Z,0.20
2023-06-23T17:05:17.206Z,0.20
2023-06-23T17:07:43.965Z,0.20
2023-06-23T17:10:11.418Z,0.20
2023-06-23T17:12:38.665Z,0.30
2023-06-23T17:15:06.132Z,0.20
2023-06-23T17:17:32.928Z,0.20
2023-06-23T17:19:59.786Z,0.30
2023-06-23T17:22:26.553Z,0.20
2023-06-23T17:24:53.959Z,0.47
2023-06-23T17:27:20.730Z,0.60
2023-06-23T17:29:47.542Z,0.70
2023-06-23T17:32:14.576Z,0.65
2023-06-23T17:34:41.438Z,0.70
2023-06-23T17:37:08.228Z,0.68
2023-06-23T17:39:35.022Z,1.08
2023-06-23T17:42:01.782Z,0.77
2023-06-23T17:44:28.565Z,0.73
2023-06-23T17:46:55.845Z,0.57
2023-06-23T17:49:22.812Z,0.20
2023-06-23T17:51:49.656Z,0.40
2023-06-23T17:54:16.383Z,0.20
2023-06-23T17:56:42.998Z,0.30
2023-06-23T17:59:10.695Z,0.47
2023-06-23T18:01:38.329Z,0.60
2023-06-23T18:04:06.071Z,0.40
2023-06-23T18:06:32.922Z,0.65
2023-06-23T18:08:59.689Z,0.60
2023-06-23T18:11:26.520Z,0.80
2023-06-23T18:13:53.356Z,0.80
2023-06-23T18:16:20.424Z,0.80
2023-06-23T18:18:47.128Z,1.10
2023-06-23T18:21:13.795Z,1.00
2023-06-23T18:23:40.534Z,0.80
2023-06-23T18:26:07.275Z,0.88
2023-06-23T18:28:34.579Z,0.80
2023-06-23T18:31:01.343Z,0.73
2023-06-23T18:33:28.081Z,0.60
2023-06-23T18:35:54.717Z,0.55
2023-06-23T18:38:21.455Z,0.70
2023-06-23T18:40:48.206Z,0.70
2023-06-23T18:43:14.899Z,0.65
2023-06-23T18:45:41.671Z,0.40
2023-06-23T18:48:08.397Z,0.40
2023-06-23T18:50:35.424Z,0.30
2023-06-23T18:53:02.313Z,0.30
2023-06-23T18:55:28.958Z,0.35
2023-06-23T18:57:56.181Z,0.40
2023-06-23T19:00:22.933Z,0.60
2023-06-23T19:02:51.056Z,0.68
2023-06-23T19:05:17.900Z,1.25
2023-06-23T19:07:44.559Z,0.70
2023-06-23T19:10:11.293Z,0.73
2023-06-23T19:12:38.025Z,1.00
2023-06-23T19:15:05.195Z,1.00
2023-06-23T19:17:31.971Z,1.10
2023-06-23T19:20:01.827Z,1.20
2023-06-23T19:22:31.152Z,1.23
2023-06-23T19:24:57.854Z,1.13
2023-06-23T19:27:24.540Z,1.40
2023-06-23T19:29:51.278Z,1.00
2023-06-23T19:32:17.924Z,1.25
2023-06-23T19:34:44.613Z,1.40
2023-06-23T19:37:11.680Z,1.58
2023-06-23T19:39:50.851Z,1.48
2023-06-23T19:42:25.062Z,1.30
2023-06-23T19:44:54.157Z,1.33
2023-06-23T19:47:22.165Z,1.27
2023-06-23T19:49:49.039Z,1.20
2023-06-23T19:52:15.869Z,1.65
2023-06-23T19:54:42.672Z,1.15
2023-06-23T19:57:09.332Z,1.30
2023-06-23T19:59:35.992Z,1.10
2023-06-23T20:02:02.879Z,1.30
2023-06-23T20:04:29.749Z,1.08
2023-06-23T20:06:56.536Z,1.10
2023-06-23T20:09:23.389Z,1.02
2023-06-23T20:11:50.049Z,1.10
2023-06-23T20:14:16.787Z,1.23
2023-06-23T20:16:43.444Z,1.15
2023-06-23T20:19:10.836Z,1.30
2023-06-23T20:21:37.545Z,1.40
2023-06-23T20:24:04.356Z,1.40
2023-06-23T20:26:31.028Z,1.30
2023-06-23T20:28:57.859Z,1.00
2023-06-23T20:31:24.962Z,1.33
2023-06-23T20:33:51.609Z,1.30
2023-06-23T20:36:18.364Z,1.38
2023-06-23T20:38:48.119Z,1.55
2023-06-23T20:41:14.840Z,1.63
2023-06-23T20:43:41.440Z,1.13
2023-06-23T20:46:08.207Z,1.40
2023-06-23T20:48:40.488Z,1.58
2023-06-23T20:51:07.286Z,1.80
2023-06-23T20:53:33.976Z,1.63
2023-06-23T20:56:00.596Z,1.70
2023-06-23T20:58:27.351Z,2.15
2023-06-23T21:00:54.160Z,1.90
2023-06-23T21:03:20.893Z,1.98
2023-06-23T21:05:47.623Z,1.65
2023-06-23T21:08:14.277Z,1.63
2023-06-23T21:10:41.194Z,1.90
2023-06-23T21:13:08.152Z,1.52
2023-06-23T21:15:35.003Z,2.10
2023-06-23T21:18:02.273Z,1.98
2023-06-23T21:20:29.133Z,2.20
2023-06-23T21:22:56.157Z,2.08
2023-06-23T21:25:23.491Z,1.98
2023-06-23T21:27:50.413Z,2.20
2023-06-23T21:30:17.335Z,1.60
2023-06-23T21:32:44.816Z,2.33
2023-06-23T21:35:13.192Z,2.42
2023-06-23T21:37:40.798Z,2.45
2023-06-23T21:40:09.785Z,2.50
2023-06-23T21:42:36.719Z,2.47
2023-06-23T21:45:04.098Z,2.28
2023-06-23T21:47:31.821Z,1.90
2023-06-23T21:49:58.663Z,2.50
2023-06-23T21:52:25.633Z,2.10
2023-06-23T21:54:52.426Z,2.03
2023-06-23T21:57:19.145Z,2.10
2023-06-23T21:59:45.964Z,2.10
2023-06-23T22:02:12.994Z,1.80
2023-06-23T22:04:39.657Z,2.10
2023-06-23T22:07:06.481Z,1.88
2023-06-23T22:09:33.430Z,1.63
2023-06-23T22:12:00.274Z,2.05
2023-06-23T22:14:27.374Z,2.35
2023-06-23T22:16:54.710Z,2.38
2023-06-23T22:19:22.042Z,2.05
2023-06-23T22:21:49.189Z,2.45
2023-06-23T22:24:16.463Z,2.40
2023-06-23T22:26:43.770Z,2.55
2023-06-23T22:29:10.447Z,2.45
2023-06-23T22:31:37.285Z,2.60
2023-06-23T22:34:04.032Z,3.05
2023-06-23T22:36:36.217Z,2.42
2023-06-23T22:39:04.413Z,2.60
2023-06-23T22:41:31.320Z,2.75
2023-06-23T22:43:58.050Z,2.53
2023-06-23T22:46:24.953Z,2.95
2023-06-23T22:48:51.905Z,3.00
2023-06-23T22:51:18.578Z,3.05
2023-06-23T22:53:45.222Z,3.05
2023-06-23T22:56:12.801Z,2.95
2023-06-23T22:58:39.835Z,3.10
2023-06-23T23:01:06.645Z,3.03
2023-06-23T23:03:33.411Z,3.25
2023-06-23T23:06:00.335Z,3.72
2023-06-23T23:08:27.053Z,3.60
2023-06-23T23:10:54.770Z,3.42
2023-06-23T23:13:21.583Z,3.35
2023-06-23T23:15:48.396Z,4.28
2023-06-23T23:18:15.441Z,4.15
2023-06-23T23:20:44.113Z,3.63
2023-06-23T23:23:10.934Z,3.38
2023-06-23T23:25:41.053Z,3.55
2023-06-23T23:28:11.455Z,3.38
2023-06-23T23:30:38.569Z,3.80
2023-06-23T23:33:05.928Z,3.30
2023-06-23T23:35:33.970Z,3.78
2023-06-23T23:38:00.757Z,3.70
2023-06-23T23:40:27.527Z,3.92
2023-06-23T23:42:54.193Z,4.38
2023-06-23T23:45:20.979Z,4.18
2023-06-23T23:47:47.838Z,3.50
2023-06-23T23:50:15.210Z,3.85
2023-06-23T23:52:41.987Z,3.80
2023-06-23T23:55:09.472Z,3.97
2023-06-23T23:57:36.290Z,4.15
